createdAt,value
2018-11-07T00:01:49.275Z,98483.98
2018-11-07T00:04:18.592Z,98484.11
2018-11-07T00:06:48.096Z,98492.05
2018-11-07T00:09:17.767Z,98491.47
2018-11-07T00:11:46.970Z,98484.77
2018-11-07T00:14:27.456Z,98483.79
2018-11-07T00:16:58.818Z,98479.83
2018-11-07T00:19:30.072Z,98482.66
2018-11-07T00:22:01.605Z,98481.60
2018-11-07T00:24:33.393Z,98474.28
2018-11-07T00:27:12.148Z,98478.83
2018-11-07T00:29:43.137Z,98488.20
2018-11-07T00:32:12.319Z,98487.53
2018-11-07T00:34:42.401Z,98483.50
2018-11-07T00:37:11.251Z,98488.25
2018-11-07T00:39:40.274Z,98494.45
2018-11-07T00:42:09.883Z,98489.41
2018-11-07T00:44:38.740Z,98486.19
2018-11-07T00:47:07.884Z,98485.81
2018-11-07T00:49:37.654Z,98483.07
2018-11-07T00:52:06.513Z,98493.77
2018-11-07T00:54:36.512Z,98493.77
2018-11-07T00:57:06.632Z,98482.05
2018-11-07T00:59:35.866Z,98484.84
2018-11-07T01:02:05.132Z,98473.42
2018-11-07T01:04:34.378Z,98475.89
2018-11-07T01:07:03.639Z,98473.02
2018-11-07T01:09:33.142Z,98475.63
2018-11-07T01:12:03.677Z,98476.77
2018-11-07T01:14:33.523Z,98477.90
2018-11-07T01:17:02.232Z,98486.03
2018-11-07T01:19:31.518Z,98469.30
2018-11-07T01:22:04.344Z,98460.96
2018-11-07T01:24:37.059Z,98456.57
2018-11-07T01:27:12.222Z,98458.12
2018-11-07T01:29:44.931Z,98457.09
2018-11-07T01:32:28.402Z,98460.28
2018-11-07T01:35:13.817Z,98471.38
2018-11-07T01:37:43.006Z,98461.92
2018-11-07T01:40:13.350Z,98466.88
2018-11-07T01:42:44.960Z,98464.64
2018-11-07T01:45:15.600Z,98470.80
2018-11-07T01:47:44.559Z,98480.73
2018-11-07T01:50:14.341Z,98483.78
2018-11-07T01:52:43.706Z,98484.33
2018-11-07T01:55:13.614Z,98483.53
2018-11-07T01:57:42.780Z,98488.88
2018-11-07T02:00:13.181Z,98495.70
2018-11-07T02:02:43.292Z,98485.98
2018-11-07T02:05:17.662Z,98473.26
2018-11-07T02:07:54.987Z,98482.91
2018-11-07T02:10:28.476Z,98486.50
2018-11-07T02:13:01.676Z,98478.39
2018-11-07T02:15:34.360Z,98483.75
2018-11-07T02:18:07.155Z,98487.08
2018-11-07T02:20:43.408Z,98486.65
2018-11-07T02:23:16.988Z,98489.30
2018-11-07T02:25:54.612Z,98482.92
2018-11-07T02:28:36.068Z,98482.67
2018-11-07T02:31:09.252Z,98481.57
2018-11-07T02:33:44.768Z,98472.08
2018-11-07T02:36:19.469Z,98471.17
2018-11-07T02:38:52.874Z,98487.48
2018-11-07T02:41:28.749Z,98480.52
2018-11-07T02:43:58.715Z,98481.95
2018-11-07T02:46:28.041Z,98483.63
2018-11-07T02:48:57.993Z,98479.95
2018-11-07T02:51:28.097Z,98484.69
2018-11-07T02:53:57.053Z,98479.41
2018-11-07T02:56:26.139Z,98484.00
2018-11-07T02:58:54.867Z,98482.30
2018-11-07T03:01:25.268Z,98478.34
2018-11-07T03:03:54.244Z,98481.60
2018-11-07T03:06:23.470Z,98485.45
2018-11-07T03:08:52.707Z,98488.09
2018-11-07T03:11:21.731Z,98486.91
2018-11-07T03:13:50.964Z,98492.63
2018-11-07T03:16:20.449Z,98493.84
2018-11-07T03:18:49.882Z,98499.04
2018-11-07T03:21:19.556Z,98499.81
2018-11-07T03:23:48.514Z,98503.23
2018-11-07T03:26:17.694Z,98502.76
2018-11-07T03:28:46.913Z,98506.64
2018-11-07T03:31:16.219Z,98499.56
2018-11-07T03:33:45.000Z,98493.25
2018-11-07T03:36:14.734Z,98495.12
2018-11-07T03:38:43.672Z,98497.50
2018-11-07T03:41:13.729Z,98496.08
2018-11-07T03:43:43.386Z,98502.08
2018-11-07T03:46:12.931Z,98498.22
2018-11-07T03:48:42.969Z,98501.48
2018-11-07T03:51:12.337Z,98501.23
2018-11-07T03:53:41.743Z,98507.55
2018-11-07T03:56:11.796Z,98521.22
2018-11-07T03:58:40.693Z,98511.04
2018-11-07T04:01:11.063Z,98509.03
2018-11-07T04:03:40.764Z,98517.88
2018-11-07T04:06:09.878Z,98520.22
2018-11-07T04:08:39.152Z,98519.91
2018-11-07T04:11:08.155Z,98514.89
2018-11-07T04:13:37.300Z,98517.38
2018-11-07T04:16:06.097Z,98517.38
2018-11-07T04:18:36.970Z,98507.20
2018-11-07T04:21:06.028Z,98504.45
2018-11-07T04:23:40.356Z,98510.69
2018-11-07T04:26:22.598Z,98511.52
2018-11-07T04:28:51.745Z,98503.89
2018-11-07T04:31:21.188Z,98506.56
2018-11-07T04:33:50.230Z,98495.13
2018-11-07T04:36:19.090Z,98505.99
2018-11-07T04:38:47.882Z,98505.98
2018-11-07T04:41:17.556Z,98512.75
2018-11-07T04:43:46.824Z,98519.91
2018-11-07T04:46:16.138Z,98517.17
2018-11-07T04:48:45.156Z,98510.48
2018-11-07T04:51:14.781Z,98511.00
2018-11-07T04:53:43.909Z,98506.67
2018-11-07T04:56:13.982Z,98521.71
2018-11-07T04:58:51.162Z,98522.77
2018-11-07T05:01:20.232Z,98514.66
2018-11-07T05:03:49.361Z,98517.66
2018-11-07T05:06:22.691Z,98525.77
2018-11-07T05:08:52.534Z,98524.39
2018-11-07T05:11:22.125Z,98523.13
2018-11-07T05:13:51.142Z,98516.65
2018-11-07T05:16:20.004Z,98518.27
2018-11-07T05:18:50.157Z,98517.22
2018-11-07T05:21:19.849Z,98511.95
2018-11-07T05:23:49.290Z,98514.80
2018-11-07T05:26:24.135Z,98512.33
2018-11-07T05:28:53.934Z,98510.06
2018-11-07T05:31:23.807Z,98511.20
2018-11-07T05:33:53.205Z,98505.73
2018-11-07T05:36:22.181Z,98510.37
2018-11-07T05:38:51.636Z,98516.51
2018-11-07T05:41:21.441Z,98518.47
2018-11-07T05:43:49.961Z,98513.47
2018-11-07T05:46:19.542Z,98518.27
2018-11-07T05:48:49.186Z,98532.39
2018-11-07T05:51:18.504Z,98536.14
2018-11-07T05:53:48.119Z,98537.39
2018-11-07T05:56:17.932Z,98538.78
2018-11-07T05:58:47.611Z,98543.86
2018-11-07T06:01:17.277Z,98547.06
2018-11-07T06:03:50.509Z,98544.63
2018-11-07T06:06:20.039Z,98559.53
2018-11-07T06:08:49.982Z,98556.99
2018-11-07T06:11:19.535Z,98561.88
2018-11-07T06:13:48.612Z,98565.99
2018-11-07T06:16:17.645Z,98563.94
2018-11-07T06:18:46.545Z,98565.27
2018-11-07T06:21:16.238Z,98563.25
2018-11-07T06:23:45.088Z,98562.04
2018-11-07T06:26:14.475Z,98573.80
2018-11-07T06:28:43.835Z,98581.61
2018-11-07T06:31:13.797Z,98580.42
2018-11-07T06:33:43.833Z,98576.51
2018-11-07T06:36:12.816Z,98580.83
2018-11-07T06:38:42.018Z,98574.61
2018-11-07T06:41:11.457Z,98573.70
2018-11-07T06:43:40.379Z,98573.70
2018-11-07T06:46:10.155Z,98567.48
2018-11-07T06:48:40.466Z,98569.84
2018-11-07T06:51:09.936Z,98572.78
2018-11-07T06:53:39.412Z,98571.94
2018-11-07T06:56:08.422Z,98576.05
2018-11-07T06:58:37.522Z,98573.33
2018-11-07T07:01:06.488Z,98572.96
2018-11-07T07:03:35.861Z,98577.66
2018-11-07T07:06:04.467Z,98575.59
2018-11-07T07:08:33.406Z,98570.59
2018-11-07T07:11:03.929Z,98570.12
2018-11-07T07:13:34.968Z,98571.70
2018-11-07T07:16:05.025Z,98567.95
2018-11-07T07:18:34.370Z,98569.67
2018-11-07T07:21:03.730Z,98571.73
2018-11-07T07:23:32.512Z,98572.58
2018-11-07T07:26:01.868Z,98564.00
2018-11-07T07:28:30.462Z,98569.64
2018-11-07T07:30:59.639Z,98571.33
2018-11-07T07:33:29.554Z,98569.55
2018-11-07T07:35:59.748Z,98571.64
2018-11-07T07:38:29.217Z,98567.61
2018-11-07T07:40:59.014Z,98568.92
2018-11-07T07:43:28.141Z,98568.92
2018-11-07T07:45:57.260Z,98562.63
2018-11-07T07:48:31.517Z,98570.70
2018-11-07T07:51:04.648Z,98568.55
2018-11-07T07:53:34.477Z,98565.54
2018-11-07T07:56:03.454Z,98571.84
2018-11-07T07:58:40.182Z,98571.94
2018-11-07T08:01:17.812Z,98570.49
2018-11-07T08:03:54.362Z,98577.83
2018-11-07T08:06:26.757Z,98570.34
2018-11-07T08:09:06.843Z,98578.89
2018-11-07T08:11:37.364Z,98579.02
2018-11-07T08:14:07.084Z,98573.62
2018-11-07T08:16:36.003Z,98579.31
2018-11-07T08:19:04.713Z,98579.72
2018-11-07T08:21:33.555Z,98590.46
2018-11-07T08:24:03.132Z,98588.54
2018-11-07T08:26:32.618Z,98592.88
2018-11-07T08:29:02.601Z,98585.36
2018-11-07T08:31:31.737Z,98582.34
2018-11-07T08:34:01.943Z,98586.03
2018-11-07T08:36:33.158Z,98588.91
2018-11-07T08:39:02.521Z,98590.81
2018-11-07T08:41:31.936Z,98587.17
2018-11-07T08:44:01.036Z,98584.80
2018-11-07T08:46:51.307Z,98582.61
2018-11-07T08:49:39.937Z,98586.86
2018-11-07T08:52:22.400Z,98576.09
2018-11-07T08:57:47.820Z,98583.67
2018-11-07T09:00:32.142Z,98582.87
2018-11-07T09:03:12.744Z,98587.34
2018-11-07T09:08:29.019Z,98586.66
2018-11-07T09:14:04.777Z,98587.33
2018-11-07T09:16:33.857Z,98593.27
2018-11-07T09:19:18.001Z,98594.66
2018-11-07T09:21:50.808Z,98590.13
2018-11-07T09:24:25.290Z,98598.58
2018-11-07T09:26:54.196Z,98589.98
2018-11-07T09:29:27.822Z,98586.33
2018-11-07T09:31:59.332Z,98587.20
2018-11-07T09:34:29.820Z,98586.64
2018-11-07T09:37:00.665Z,98581.70
2018-11-07T09:39:45.992Z,98585.06
2018-11-07T09:42:14.894Z,98588.63
2018-11-07T09:44:44.624Z,98582.48
2018-11-07T09:47:14.331Z,98587.14
2018-11-07T09:49:44.492Z,98578.52
2018-11-07T09:52:17.916Z,98575.28
2018-11-07T09:54:51.152Z,98575.89
2018-11-07T09:57:33.475Z,98582.96
2018-11-07T10:00:11.913Z,98577.80
2018-11-07T10:02:55.445Z,98576.20
2018-11-07T10:05:31.309Z,98583.14
2018-11-07T10:08:09.717Z,98577.64
2018-11-07T10:10:43.200Z,98578.68
2018-11-07T10:13:18.628Z,98582.16
2018-11-07T10:15:54.937Z,98568.84
2018-11-07T10:18:27.364Z,98568.18
2018-11-07T10:21:01.142Z,98572.16
2018-11-07T10:23:39.732Z,98579.89
2018-11-07T10:26:13.340Z,98571.12
2018-11-07T10:28:47.236Z,98575.76
2018-11-07T10:31:29.951Z,98566.98
2018-11-07T10:34:01.853Z,98566.49
2018-11-07T10:36:33.707Z,98552.77
2018-11-07T10:39:04.160Z,98553.58
2018-11-07T10:41:38.915Z,98553.63
2018-11-07T10:44:07.711Z,98552.81
2018-11-07T10:46:37.139Z,98555.18
2018-11-07T10:49:08.544Z,98553.86
2018-11-07T10:51:50.529Z,98555.18
2018-11-07T10:54:25.230Z,98549.22
2018-11-07T10:57:03.778Z,98555.80
2018-11-07T10:59:34.874Z,98547.76
2018-11-07T11:02:07.525Z,98544.22
2018-11-07T11:04:36.482Z,98544.11
2018-11-07T11:07:06.040Z,98543.28
2018-11-07T11:09:35.316Z,98544.87
2018-11-07T11:12:04.461Z,98541.86
2018-11-07T11:14:33.641Z,98548.95
2018-11-07T11:17:03.003Z,98550.23
2018-11-07T11:19:31.851Z,98549.49
2018-11-07T11:22:01.724Z,98556.22
2018-11-07T11:24:31.328Z,98554.89
2018-11-07T11:27:00.567Z,98550.77
2018-11-07T11:29:29.570Z,98555.88
2018-11-07T11:31:59.143Z,98555.42
2018-11-07T11:34:28.651Z,98550.14
2018-11-07T11:36:57.744Z,98553.36
2018-11-07T11:39:27.087Z,98554.08
2018-11-07T11:41:56.813Z,98545.02
2018-11-07T11:44:26.346Z,98542.98
2018-11-07T11:47:11.782Z,98550.97
2018-11-07T11:49:40.584Z,98546.75
2018-11-07T11:52:09.687Z,98542.22
2018-11-07T11:54:39.425Z,98545.72
2018-11-07T11:57:12.371Z,98541.55
2018-11-07T11:59:50.805Z,98536.09
2018-11-07T12:02:23.189Z,98534.44
2018-11-07T12:05:01.584Z,98531.27
2018-11-07T12:07:34.806Z,98528.41
2018-11-07T12:10:04.343Z,98531.77
2018-11-07T12:12:33.240Z,98527.98
2018-11-07T12:15:02.786Z,98529.31
2018-11-07T12:17:31.708Z,98527.12
2018-11-07T12:20:00.529Z,98527.84
2018-11-07T12:22:29.646Z,98526.41
2018-11-07T12:24:58.865Z,98527.97
2018-11-07T12:27:28.514Z,98526.34
2018-11-07T12:29:57.968Z,98522.67
2018-11-07T12:32:27.375Z,98523.55
2018-11-07T12:34:56.657Z,98524.28
2018-11-07T12:37:26.333Z,98526.31
2018-11-07T12:39:55.876Z,98522.77
2018-11-07T12:42:26.855Z,98528.02
2018-11-07T12:44:56.105Z,98528.67
2018-11-07T12:47:25.572Z,98530.02
2018-11-07T12:49:54.792Z,98530.52
2018-11-07T12:52:23.709Z,98524.13
2018-11-07T12:54:53.252Z,98530.02
2018-11-07T12:57:22.977Z,98526.31
2018-11-07T12:59:51.721Z,98532.64
2018-11-07T13:02:21.889Z,98524.27
2018-11-07T13:04:50.524Z,98524.59
2018-11-07T13:07:19.512Z,98526.88
2018-11-07T13:09:48.892Z,98529.55
2018-11-07T13:12:18.424Z,98521.63
2018-11-07T13:14:47.849Z,98528.97
2018-11-07T13:17:17.170Z,98527.44
2018-11-07T13:19:46.840Z,98531.50
2018-11-07T13:22:15.981Z,98530.34
2018-11-07T13:24:45.442Z,98532.80
2018-11-07T13:27:14.720Z,98534.03
2018-11-07T13:29:43.962Z,98528.52
2018-11-07T13:32:13.864Z,98533.77
2018-11-07T13:34:42.728Z,98524.70
2018-11-07T13:37:12.811Z,98530.91
2018-11-07T13:39:41.692Z,98520.91
2018-11-07T13:42:10.812Z,98533.89
2018-11-07T13:44:40.605Z,98537.66
2018-11-07T13:47:10.774Z,98537.17
2018-11-07T13:49:40.477Z,98533.44
2018-11-07T13:52:09.641Z,98528.36
2018-11-07T13:54:39.092Z,98529.89
2018-11-07T13:57:08.463Z,98531.64
2018-11-07T13:59:37.596Z,98537.20
2018-11-07T14:02:07.350Z,98532.13
2018-11-07T14:04:36.954Z,98531.70
2018-11-07T14:07:06.810Z,98532.72
2018-11-07T14:09:36.197Z,98537.81
2018-11-07T14:12:05.953Z,98541.83
2018-11-07T14:14:34.620Z,98543.18
2018-11-07T14:17:04.029Z,98542.02
2018-11-07T14:19:33.467Z,98545.82
2018-11-07T14:22:02.499Z,98549.79
2018-11-07T14:24:33.287Z,98545.68
2018-11-07T14:27:02.204Z,98550.04
2018-11-07T14:29:31.539Z,98552.64
2018-11-07T14:32:01.505Z,98553.23
2018-11-07T14:34:35.696Z,98552.52
2018-11-07T14:37:09.069Z,98559.42
2018-11-07T14:43:00.788Z,98571.34
2018-11-07T14:46:02.432Z,98563.33
2018-11-07T14:48:36.566Z,98564.36
2018-11-07T14:51:15.643Z,98564.95
2018-11-07T14:53:59.877Z,98570.21
2018-11-07T14:57:03.011Z,98569.27
2018-11-07T14:59:45.016Z,98572.81
2018-11-07T15:02:16.572Z,98576.48
2018-11-07T15:04:47.040Z,98574.83
2018-11-07T15:07:22.327Z,98584.59
2018-11-07T15:10:01.938Z,98582.20
2018-11-07T15:12:33.412Z,98577.45
2018-11-07T15:15:05.491Z,98587.62
2018-11-07T15:17:46.980Z,98581.89
2018-11-07T15:20:18.592Z,98585.63
2018-11-07T15:22:50.370Z,98596.84
2018-11-07T15:25:19.251Z,98599.25
2018-11-07T15:27:50.631Z,98598.27
2018-11-07T15:30:19.890Z,98602.09
2018-11-07T15:32:51.378Z,98607.14
2018-11-07T15:35:22.244Z,98605.30
2018-11-07T15:37:54.194Z,98604.55
2018-11-07T15:40:34.674Z,98605.48
2018-11-07T15:46:03.607Z,98607.51
2018-11-07T15:48:46.238Z,98604.11
2018-11-07T15:51:56.596Z,98611.86
2018-11-07T15:54:36.059Z,98615.22
2018-11-07T15:57:14.550Z,98615.55
2018-11-07T15:59:52.960Z,98617.33
2018-11-07T16:02:29.448Z,98616.86
2018-11-07T16:05:03.101Z,98620.38
2018-11-07T16:10:23.858Z,98622.80
2018-11-07T16:12:55.829Z,98632.89
2018-11-07T16:15:32.139Z,98629.11
2018-11-07T16:18:07.841Z,98633.25
2018-11-07T16:23:33.539Z,98629.34
2018-11-07T16:26:07.976Z,98633.58
2018-11-07T16:28:51.743Z,98630.80
2018-11-07T16:31:33.092Z,98637.44
2018-11-07T16:34:17.111Z,98638.72
2018-11-07T16:36:52.508Z,98640.14
2018-11-07T16:39:26.496Z,98642.84
2018-11-07T16:42:13.207Z,98646.80
2018-11-07T16:44:49.237Z,98641.22
2018-11-07T16:47:21.688Z,98643.47
2018-11-07T16:49:54.042Z,98643.64
2018-11-07T16:52:34.012Z,98647.39
2018-11-07T16:55:10.425Z,98648.55
2018-11-07T16:57:44.064Z,98649.25
2018-11-07T17:00:18.518Z,98654.34
2018-11-07T17:02:50.575Z,98654.98
2018-11-07T17:05:19.885Z,98662.48
2018-11-07T17:07:55.871Z,98663.00
2018-11-07T17:10:33.795Z,98674.95
2018-11-07T17:13:11.489Z,98670.31
2018-11-07T17:15:42.205Z,98678.45
2018-11-07T17:18:13.148Z,98684.83
2018-11-07T17:20:50.487Z,98691.88
2018-11-07T17:23:23.470Z,98691.03
2018-11-07T17:25:53.752Z,98699.36
2018-11-07T17:28:28.194Z,98705.25
2018-11-07T17:31:00.897Z,98709.64
2018-11-07T17:33:32.334Z,98709.64
2018-11-07T17:36:12.254Z,98709.87
2018-11-07T17:39:03.814Z,98713.58
2018-11-07T17:41:37.674Z,98717.34
2018-11-07T17:44:11.036Z,98720.36
2018-11-07T17:46:44.692Z,98721.97
2018-11-07T17:49:17.869Z,98731.27
2018-11-07T17:52:00.400Z,98732.60
2018-11-07T17:54:41.039Z,98732.47
2018-11-07T17:57:17.524Z,98731.53
2018-11-07T17:59:52.202Z,98731.68
2018-11-07T18:02:24.782Z,98734.84
2018-11-07T18:05:05.311Z,98743.80
2018-11-07T18:07:34.631Z,98749.09
2018-11-07T18:10:11.438Z,98748.50
2018-11-07T18:12:48.252Z,98750.06
2018-11-07T18:15:19.923Z,98751.27
2018-11-07T18:17:49.388Z,98750.52
2018-11-07T18:20:18.420Z,98751.72
2018-11-07T18:23:02.467Z,98754.63
2018-11-07T18:25:40.731Z,98763.81
2018-11-07T18:28:21.400Z,98764.56
2018-11-07T18:30:58.677Z,98774.57
2018-11-07T18:33:36.658Z,98773.61
2018-11-07T18:36:26.084Z,98777.72
2018-11-07T18:39:08.655Z,98784.00
2018-11-07T18:41:46.036Z,98781.84
2018-11-07T18:44:31.488Z,98788.34
2018-11-07T18:47:12.222Z,98792.33
2018-11-07T18:49:52.621Z,98791.35
2018-11-07T18:52:27.500Z,98787.97
2018-11-07T18:55:10.716Z,98793.66
2018-11-07T18:57:53.045Z,98800.56
2018-11-07T19:00:33.675Z,98800.55
2018-11-07T19:03:11.696Z,98804.05
2018-11-07T19:05:52.238Z,98811.77
2018-11-07T19:08:38.698Z,98810.33
2018-11-07T19:14:14.161Z,98814.68
2018-11-07T19:16:55.252Z,98816.74
2018-11-07T19:19:38.008Z,98816.38
2018-11-07T19:22:14.606Z,98810.45
2018-11-07T19:30:00.109Z,98809.38
2018-11-07T19:32:39.845Z,98810.20
2018-11-07T19:35:16.922Z,98810.92
2018-11-07T19:37:55.932Z,98819.40
2018-11-07T19:40:33.142Z,98821.44
2018-11-07T19:43:10.788Z,98830.02
2018-11-07T19:45:54.055Z,98835.58
2018-11-07T19:48:31.450Z,98836.30
2018-11-07T19:51:10.960Z,98842.98
2018-11-07T19:53:47.803Z,98845.14
2018-11-07T19:56:25.374Z,98852.59
2018-11-07T19:59:02.530Z,98853.83
2018-11-07T20:01:40.427Z,98857.12
2018-11-07T20:04:23.428Z,98868.16
2018-11-07T20:06:58.854Z,98867.23
2018-11-07T20:09:40.623Z,98866.70
2018-11-07T20:12:20.723Z,98870.66
2018-11-07T20:14:53.108Z,98880.10
2018-11-07T20:17:26.087Z,98883.27
2018-11-07T20:19:58.792Z,98887.98
2018-11-07T20:22:37.992Z,98888.11
2018-11-07T20:25:17.609Z,98884.93
2018-11-07T20:27:49.492Z,98890.72
2018-11-07T20:30:22.513Z,98882.04
2018-11-07T20:32:58.540Z,98883.13
2018-11-07T20:35:29.692Z,98879.78
2018-11-07T20:40:50.571Z,98863.36
2018-11-07T20:43:23.399Z,98876.43
2018-11-07T20:45:58.656Z,98868.91
2018-11-07T20:48:29.853Z,98872.23
2018-11-07T20:51:04.970Z,98864.86
2018-11-07T20:53:44.595Z,98865.42
2018-11-07T20:56:25.190Z,98875.14
2018-11-07T20:59:00.088Z,98883.91
2018-11-07T21:01:34.327Z,98897.07
2018-11-07T21:04:05.728Z,98895.86
2018-11-07T21:06:44.797Z,98896.05
2018-11-07T21:09:23.791Z,98900.31
2018-11-07T21:11:56.336Z,98892.69
2018-11-07T21:14:28.659Z,98899.83
2018-11-07T21:17:09.708Z,98897.31
2018-11-07T21:19:41.485Z,98897.92
2018-11-07T21:22:12.905Z,98904.14
2018-11-07T21:24:47.038Z,98906.14
2018-11-07T21:27:21.247Z,98914.84
2018-11-07T21:29:54.386Z,98919.73
2018-11-07T21:32:27.803Z,98919.94
2018-11-07T21:35:00.522Z,98940.13
2018-11-07T21:37:37.442Z,98942.97
2018-11-07T21:40:13.210Z,98949.44
2018-11-07T21:42:48.462Z,98953.69
2018-11-07T21:45:19.178Z,98948.72
2018-11-07T21:47:48.877Z,98949.78
2018-11-07T21:50:19.181Z,98951.88
2018-11-07T21:52:48.628Z,98958.41
2018-11-07T21:55:17.620Z,98961.70
2018-11-07T21:57:46.985Z,98964.50
2018-11-07T22:00:18.593Z,98971.38
2018-11-07T22:02:48.501Z,98978.60
2018-11-07T22:05:18.344Z,98990.59
2018-11-07T22:07:48.560Z,98988.87
2018-11-07T22:10:18.372Z,98988.61
2018-11-07T22:12:48.460Z,98993.75
2018-11-07T22:15:17.421Z,98996.06
2018-11-07T22:17:46.928Z,98999.20
2018-11-07T22:20:19.643Z,98994.74
2018-11-07T22:22:48.608Z,98988.39
2018-11-07T22:25:17.795Z,98995.25
2018-11-07T22:27:47.014Z,98988.16
2018-11-07T22:30:17.209Z,98991.67
2018-11-07T22:32:46.602Z,98999.45
2018-11-07T22:35:18.074Z,98995.33
2018-11-07T22:37:47.638Z,99000.81
2018-11-07T22:40:18.092Z,98997.03
2018-11-07T22:42:47.488Z,99005.84
2018-11-07T22:45:16.813Z,99011.25
2018-11-07T22:47:45.402Z,99016.81
2018-11-07T22:50:15.856Z,99026.64
2018-11-07T22:52:45.275Z,99027.91
2018-11-07T22:55:14.696Z,99022.55
2018-11-07T22:57:44.601Z,99029.12
2018-11-07T23:00:20.510Z,99032.66
2018-11-07T23:02:51.018Z,99028.95
2018-11-07T23:05:20.162Z,99027.14
2018-11-07T23:07:50.419Z,99024.27
2018-11-07T23:10:19.569Z,99024.05
2018-11-07T23:12:58.522Z,99023.80
2018-11-07T23:15:38.984Z,99014.88
2018-11-07T23:18:09.543Z,99015.08
2018-11-07T23:20:41.618Z,99028.06
2018-11-07T23:23:20.953Z,99029.76
2018-11-07T23:25:56.656Z,99030.39
2018-11-07T23:28:31.691Z,99032.30
2018-11-07T23:31:07.636Z,99034.84
2018-11-07T23:33:39.222Z,99037.23
2018-11-07T23:36:08.928Z,99037.42
2018-11-07T23:38:38.182Z,99038.08
2018-11-07T23:41:07.432Z,99033.48
2018-11-07T23:43:36.937Z,99032.05
2018-11-07T23:46:06.851Z,99038.89
2018-11-07T23:48:36.274Z,99035.23
2018-11-07T23:51:06.121Z,99040.44
2018-11-07T23:53:36.925Z,99042.91
2018-11-07T23:56:06.277Z,99046.73
2018-11-07T23:58:36.297Z,99046.84
